FQQL

Quelimane Airport

Quelimane, Mozambique
METAR FQQL 191600Z 09003KT 9999 SCT020 SCT/// 29/25 Q1005
Observed Flight Rules
Jan-19 @ 16:00 UTC (37 minutes ago) Visual Flight Rules
Wind Visibility Clouds
90° at 3 knots 10,000+ meters
  • Scattered at 2,000' AGL
Temperatures Readings
Current 29°C / 84°F
Dewpoint 25°C / 77°F
Humidity 79%
Altimeter 29.68" Hg
Pressure 1004.92 hPa
Elevation 16
METAR FQQL 191600Z 09003KT 9999 SCT020 SCT/// 29/25 Q1005
Observed Flight Rules
Jan-19 @ 16:00 UTC
(37 minutes ago)
VFR
Wind Visibility
90° at 3 knots 10,000+ meters
Clouds
  • Scattered at 2,000' AGL
Temperature Dewpoint
29°C / 84°F 25°C / 77°F
Humidity Altimeter Pressure
79% 29.68" Hg 1004.92 hPa